Briefing drone pour Sorbiers

Rechercher une autre localisation

Conditions de vol :


Nous sommes le : Lundi 26 février 2024
Il est 11:41 UTC (12:41 LT)

Lever de soleil : 05:59 UTC (06:59 LT)
Coucher de soleil : 17:50 UTC (18:50 LT)

Météo

L'essentiel des conditions de vol

VIGILANCE MÉTÉO FRANCE - Loire (42)
Pas de vigilances particulieres
CARTES DES FRONTS
METAR de LFMH
LFMH 261130Z AUTO 21011KT 9999 FEW048 BKN056 13/02 Q0996

Date d'émission: 26/02/2024
Heure d'émission: 11:30 UTC
Vent: 210° pour 11 KT (20 km/h)
Visibilité horizontale: > 10 km
Plafond :
- Peu de nuages à 4800ft (1463m)
- Nuages morcelés à 5600ft (1707m)
Température: 13 °C
Point de rosée: 2 °C
Humidité: 47%
Pression (QNH): 996 hPa
TAF de LFMH
LFMH 161901Z 1619/1712 CNL

Conditions prévues :

Heure d'émission : Bulletin éffectué le 16 à 19:00 UTC
Prévision : Valide du 16 a 19:00 UTC au 17 a 12:00 UTC
Nuages : à 0ft (0 m)
WEBCAM POUR SORBIERS

Réglementation

Voler en sécurité

CARTES AERONAUTIQUE 1/500.000
CARTE AZBA (Reseau basse altitude)
CARTES VAC (LFMH)
SUP AIP




Chargement des AIP...
NOTAM (SORBIERS + Terrain à proximité / FIR )




Chargement des NOTAMS...
CONTACT PREFECTURE 42
Loire (42) : [email protected]


Avertissement : Les données mises à disposition sont indicatives. Oxygène Drone ne pourra être tenu responsable de dégâts causés aux biens et aux personnes.